createdAt,value
2022-11-28T07:04:21.089Z,10
2022-11-28T07:05:19.711Z,15
2022-11-28T07:06:19.554Z,15
2022-11-28T07:07:26.588Z,15
2022-11-28T07:08:19.407Z,15
2022-11-28T07:09:19.817Z,15
2022-11-28T07:10:19.725Z,20
2022-11-28T07:11:19.478Z,20
2022-11-28T07:12:20.033Z,25
2022-11-28T07:13:19.860Z,25
2022-11-28T07:14:19.584Z,25
2022-11-28T07:15:20.134Z,30
2022-11-28T07:16:19.612Z,30
2022-11-28T07:17:19.342Z,30
2022-11-28T07:18:19.720Z,30
2022-11-28T07:19:19.476Z,35
2022-11-28T07:20:21.833Z,35
2022-11-28T07:21:19.164Z,35
2022-11-28T07:22:19.062Z,35
2022-11-28T07:23:19.768Z,35
2022-11-28T07:24:21.166Z,35
2022-11-28T07:25:19.364Z,35
2022-11-28T07:26:19.883Z,35
2022-11-28T07:27:19.789Z,35
2022-11-28T07:28:25.567Z,35
2022-11-28T07:29:19.939Z,35
2022-11-28T07:30:19.162Z,35
2022-11-28T07:31:20.161Z,35
2022-11-28T07:32:19.935Z,35
2022-11-28T07:33:20.762Z,35
2022-11-28T07:34:19.708Z,35
2022-11-28T07:35:20.097Z,40
2022-11-28T07:36:21.333Z,40
2022-11-28T07:37:19.730Z,40
2022-11-28T07:38:19.256Z,35
2022-11-28T07:39:51.770Z,35
2022-11-28T07:40:19.699Z,35
2022-11-28T07:41:26.183Z,35
2022-11-28T07:42:19.418Z,40
2022-11-28T07:43:19.837Z,40
2022-11-28T07:44:19.406Z,40
2022-11-28T07:45:19.657Z,40
2022-11-28T07:46:19.578Z,40
2022-11-28T07:47:19.342Z,40
2022-11-28T07:48:19.100Z,40
2022-11-28T07:49:19.677Z,45
2022-11-28T07:50:19.864Z,45
2022-11-28T07:51:20.029Z,50
2022-11-28T07:52:20.368Z,50
2022-11-28T07:53:19.150Z,55
2022-11-28T07:54:19.406Z,55
2022-11-28T07:55:19.387Z,55
2022-11-28T07:56:19.672Z,60
2022-11-28T07:57:21.748Z,60
2022-11-28T07:58:19.192Z,65
2022-11-28T07:59:19.428Z,65
2022-11-28T08:00:19.671Z,65
2022-11-28T08:01:19.889Z,65
2022-11-28T08:02:21.184Z,65
2022-11-28T08:03:19.320Z,65
2022-11-28T08:04:19.877Z,70
2022-11-28T08:05:20.579Z,70
2022-11-28T08:06:20.245Z,70
2022-11-28T08:07:19.829Z,70
2022-11-28T08:08:21.087Z,70
2022-11-28T08:09:21.014Z,70
2022-11-28T08:10:20.462Z,70
2022-11-28T08:11:19.758Z,70
2022-11-28T08:12:19.537Z,70
2022-11-28T08:13:19.284Z,70
2022-11-28T08:14:19.402Z,70
2022-11-28T08:15:19.473Z,75
2022-11-28T08:16:20.087Z,75
2022-11-28T08:17:19.643Z,75
2022-11-28T08:18:20.040Z,75
2022-11-28T08:19:28.303Z,75
2022-11-28T08:20:20.559Z,75
2022-11-28T08:21:19.303Z,75
2022-11-28T08:22:22.029Z,80
2022-11-28T08:23:19.369Z,80
2022-11-28T08:24:20.846Z,85
2022-11-28T08:25:19.317Z,85
2022-11-28T08:26:19.662Z,85
2022-11-28T08:27:19.766Z,85
